createdAt,value
2023-02-11T00:01:41.252Z,16.50
2023-02-11T00:04:11.471Z,21.70
2023-02-11T00:06:40.057Z,19.00
2023-02-11T00:09:10.600Z,14.70
2023-02-11T00:11:39.680Z,10.90
2023-02-11T00:14:08.902Z,19.70
2023-02-11T00:16:38.729Z,18.60
2023-02-11T00:19:07.580Z,15.10
2023-02-11T00:21:38.211Z,21.90
2023-02-11T00:24:07.311Z,22.40
2023-02-11T00:26:36.412Z,14.80
2023-02-11T00:29:06.338Z,12.70
2023-02-11T00:31:36.272Z,16.10
2023-02-11T00:34:08.088Z,18.50
2023-02-11T00:36:37.807Z,15.30
2023-02-11T00:39:07.106Z,19.00
2023-02-11T00:41:39.051Z,14.60
2023-02-11T00:44:07.843Z,21.00
2023-02-11T00:46:36.746Z,17.40
2023-02-11T00:49:06.673Z,17.90
2023-02-11T00:51:37.069Z,13.50
2023-02-11T00:54:06.170Z,20.70
2023-02-11T00:56:35.267Z,15.30
2023-02-11T00:59:04.049Z,14.40
2023-02-11T01:01:33.524Z,17.00
2023-02-11T01:04:03.263Z,16.60
2023-02-11T01:06:32.159Z,21.20
2023-02-11T01:09:01.053Z,18.70
2023-02-11T01:11:34.059Z,20.30
2023-02-11T01:14:02.927Z,17.90
2023-02-11T01:16:31.719Z,15.10
2023-02-11T01:19:01.015Z,22.60
2023-02-11T01:21:30.016Z,20.40
2023-02-11T01:23:59.306Z,22.10
2023-02-11T01:26:28.608Z,20.30
2023-02-11T01:29:01.290Z,20.00
2023-02-11T01:31:31.215Z,22.40
2023-02-11T01:34:02.444Z,16.00
2023-02-11T01:36:31.547Z,20.40
2023-02-11T01:39:02.176Z,20.30
2023-02-11T01:41:31.890Z,16.60
2023-02-11T01:44:28.244Z,16.30
2023-02-11T01:46:57.309Z,19.20
2023-02-11T01:49:35.569Z,20.20
2023-02-11T01:52:06.570Z,17.60
2023-02-11T01:54:59.825Z,18.80
2023-02-11T01:57:30.448Z,23.00
2023-02-11T02:00:21.899Z,16.10
2023-02-11T02:03:02.848Z,21.80
2023-02-11T02:06:01.439Z,20.10
2023-02-11T02:08:35.849Z,15.80
2023-02-11T02:11:07.713Z,14.30
2023-02-11T02:13:39.875Z,16.00
2023-02-11T02:16:12.837Z,13.60
2023-02-11T02:19:03.567Z,19.60
2023-02-11T02:21:54.472Z,18.80
2023-02-11T02:25:01.348Z,16.10
2023-02-11T02:27:49.495Z,15.50
2023-02-11T02:30:47.251Z,17.50
2023-02-11T02:33:28.536Z,14.60
2023-02-11T02:36:07.662Z,17.90
2023-02-11T02:38:43.663Z,17.90
2023-02-11T02:41:14.459Z,19.20
2023-02-11T02:43:48.464Z,15.20
2023-02-11T02:46:24.899Z,14.60
2023-02-11T02:48:54.849Z,17.40
2023-02-11T02:52:05.941Z,13.70
2023-02-11T02:55:12.812Z,18.00
2023-02-11T02:57:44.464Z,17.30
2023-02-11T03:00:16.531Z,20.30
2023-02-11T03:03:15.527Z,17.40
2023-02-11T03:05:50.732Z,15.20
2023-02-11T03:08:38.607Z,14.90
2023-02-11T03:11:07.187Z,13.80
2023-02-11T03:13:37.107Z,16.20
2023-02-11T03:16:12.588Z,15.00
2023-02-11T03:18:43.115Z,17.60
2023-02-11T03:21:11.862Z,19.80
2023-02-11T03:23:44.856Z,22.20
2023-02-11T03:26:25.687Z,19.40
2023-02-11T03:29:23.283Z,18.20
2023-02-11T03:32:25.856Z,19.70
2023-02-11T03:35:16.455Z,16.70
2023-02-11T03:37:57.733Z,18.00
2023-02-11T03:40:27.890Z,12.60
2023-02-11T03:43:01.865Z,16.30
2023-02-11T03:45:30.775Z,23.10
2023-02-11T03:48:06.711Z,19.40
2023-02-11T03:50:35.203Z,16.10
2023-02-11T03:53:04.295Z,18.70
2023-02-11T03:55:34.476Z,22.00
2023-02-11T03:58:03.199Z,18.00
2023-02-11T04:00:33.322Z,18.70
2023-02-11T04:03:02.288Z,18.70
2023-02-11T04:05:31.617Z,19.90
2023-02-11T04:08:00.324Z,15.50
2023-02-11T04:10:29.286Z,18.70
2023-02-11T04:12:58.382Z,19.40
2023-02-11T04:15:27.271Z,21.40
2023-02-11T04:17:55.971Z,19.70
2023-02-11T04:20:24.749Z,16.20
2023-02-11T04:22:53.756Z,25.80
2023-02-11T04:25:22.632Z,17.60
2023-02-11T04:27:52.649Z,17.70
2023-02-11T04:30:21.557Z,17.60
2023-02-11T04:32:50.322Z,19.10
2023-02-11T04:35:19.217Z,15.40
2023-02-11T04:37:48.218Z,21.70
2023-02-11T04:40:17.507Z,24.10
2023-02-11T04:42:47.114Z,19.30
2023-02-11T04:45:16.114Z,21.70
2023-02-11T04:47:44.797Z,19.30
2023-02-11T04:50:14.095Z,19.10
2023-02-11T04:52:43.192Z,19.60
2023-02-11T04:55:12.963Z,18.20
2023-02-11T04:57:41.714Z,19.00
2023-02-11T05:00:11.496Z,27.50
2023-02-11T05:02:40.299Z,23.20
2023-02-11T05:05:09.282Z,23.70
2023-02-11T05:07:38.162Z,18.50
2023-02-11T05:10:07.061Z,22.30
2023-02-11T05:12:36.577Z,22.90
2023-02-11T05:15:05.860Z,21.40
2023-02-11T05:17:35.055Z,22.10
2023-02-11T05:20:04.266Z,24.80
2023-02-11T05:22:34.269Z,26.50
2023-02-11T05:25:03.083Z,15.30
2023-02-11T05:27:31.945Z,17.70
2023-02-11T05:30:00.761Z,14.70
2023-02-11T05:32:29.832Z,20.60
2023-02-11T05:34:58.727Z,27.30
2023-02-11T05:37:27.760Z,24.00
2023-02-11T05:39:56.508Z,25.20
2023-02-11T05:42:25.187Z,25.40
2023-02-11T05:44:53.976Z,21.80
2023-02-11T05:47:22.863Z,27.70
2023-02-11T05:49:52.064Z,23.10
2023-02-11T05:52:21.779Z,22.80
2023-02-11T05:54:50.368Z,19.90
2023-02-11T05:57:20.584Z,22.60
2023-02-11T05:59:49.367Z,24.30
2023-02-11T06:02:21.507Z,28.00
2023-02-11T06:04:50.226Z,25.30
2023-02-11T06:07:23.823Z,32.90
2023-02-11T06:09:53.223Z,28.20
2023-02-11T06:12:22.016Z,23.60
2023-02-11T06:14:51.411Z,22.10
2023-02-11T06:17:20.443Z,22.30
2023-02-11T06:19:51.749Z,26.40
2023-02-11T06:22:20.750Z,24.40
2023-02-11T06:25:00.801Z,24.80
2023-02-11T06:27:33.375Z,20.60
2023-02-11T06:30:02.062Z,24.30
2023-02-11T06:32:46.557Z,30.80
2023-02-11T06:35:15.517Z,19.90
2023-02-11T06:37:47.467Z,22.30
2023-02-11T06:40:16.072Z,21.70
2023-02-11T06:42:44.953Z,18.60
2023-02-11T06:45:14.047Z,17.10
2023-02-11T06:47:42.929Z,26.50
2023-02-11T06:50:13.668Z,26.50
2023-02-11T06:52:43.586Z,26.80
2023-02-11T06:55:12.572Z,22.60
2023-02-11T06:57:42.494Z,13.20
2023-02-11T07:00:12.306Z,16.70
2023-02-11T07:02:41.050Z,15.10
2023-02-11T07:05:11.023Z,22.70
2023-02-11T07:07:41.317Z,19.20
2023-02-11T07:10:10.924Z,25.00
2023-02-11T07:12:40.845Z,12.80
2023-02-11T07:15:09.640Z,18.70
2023-02-11T07:17:38.627Z,15.80
2023-02-11T07:27:44.423Z,25.20
2023-02-11T07:30:14.234Z,12.70
2023-02-11T07:32:43.130Z,21.20
2023-02-11T07:35:12.128Z,19.40
2023-02-11T07:37:42.036Z,9.60
2023-02-11T07:40:12.247Z,11.70
2023-02-11T07:42:42.269Z,14.20
2023-02-11T07:45:11.772Z,22.50
2023-02-11T07:47:43.125Z,20.30
2023-02-11T07:50:14.683Z,18.70
2023-02-11T07:52:43.872Z,16.10
2023-02-11T07:55:12.704Z,18.60
2023-02-11T07:57:41.761Z,17.50
2023-02-11T08:00:11.326Z,17.70
2023-02-11T08:02:40.358Z,18.80
2023-02-11T08:05:09.138Z,21.40
2023-02-11T08:07:38.238Z,21.60
2023-02-11T08:10:07.864Z,21.60
2023-02-11T08:13:52.527Z,19.50
2023-02-11T08:16:26.228Z,15.30
2023-02-11T08:18:57.914Z,21.40
2023-02-11T08:21:26.857Z,16.30
2023-02-11T08:23:55.744Z,17.70
2023-02-11T08:26:26.380Z,15.70
2023-02-11T08:28:56.002Z,16.70
2023-02-11T08:31:30.120Z,22.40
2023-02-11T08:33:59.088Z,19.80
2023-02-11T08:36:33.116Z,16.90
2023-02-11T08:39:18.222Z,16.60
2023-02-11T08:41:49.899Z,14.10
2023-02-11T08:44:19.871Z,23.20
2023-02-11T08:46:48.646Z,17.30
2023-02-11T08:49:18.161Z,17.60
2023-02-11T08:51:46.822Z,10.50
2023-02-11T08:54:15.931Z,18.00
2023-02-11T08:56:44.719Z,12.60
2023-02-11T08:59:15.687Z,20.70
2023-02-11T09:01:44.830Z,13.00
2023-02-11T09:04:14.036Z,14.10
2023-02-11T09:06:43.443Z,15.50
2023-02-11T09:09:13.966Z,13.40
2023-02-11T09:11:43.266Z,14.40
2023-02-11T09:14:17.276Z,12.50
2023-02-11T09:16:46.521Z,11.70
2023-02-11T09:19:19.257Z,12.20
2023-02-11T09:21:48.145Z,23.60
2023-02-11T09:24:16.837Z,11.50
2023-02-11T09:26:45.720Z,13.80
2023-02-11T09:29:14.533Z,13.50
2023-02-11T09:31:43.520Z,9.80
2023-02-11T09:34:12.918Z,10.50
2023-02-11T09:36:42.006Z,11.40
2023-02-11T09:39:18.684Z,8.70
2023-02-11T09:42:35.178Z,11.00
2023-02-11T09:45:04.919Z,14.80
2023-02-11T09:47:36.486Z,9.80
2023-02-11T09:50:08.174Z,10.40
2023-02-11T09:53:20.918Z,9.20
2023-02-11T09:55:55.961Z,8.50
2023-02-11T09:58:28.529Z,8.30
2023-02-11T10:01:09.240Z,10.30
2023-02-11T10:03:59.452Z,11.10
2023-02-11T10:06:28.193Z,7.80
2023-02-11T10:09:25.601Z,10.10
2023-02-11T10:12:16.250Z,7.40
2023-02-11T10:15:01.813Z,17.00
2023-02-11T10:17:57.757Z,7.60
2023-02-11T10:20:31.466Z,8.30
2023-02-11T10:23:02.009Z,8.90
2023-02-11T10:25:45.498Z,6.80
2023-02-11T10:30:50.621Z,5.40
2023-02-11T10:33:26.020Z,6.20
2023-02-11T10:35:54.492Z,6.00
2023-02-11T10:38:23.178Z,9.90
2023-02-11T10:40:52.300Z,8.20
2023-02-11T10:43:24.427Z,7.60
2023-02-11T10:45:55.206Z,8.60
2023-02-11T10:48:56.645Z,8.70
2023-02-11T10:51:30.224Z,11.30
2023-02-11T10:54:05.070Z,9.80
2023-02-11T10:56:35.910Z,9.70
2023-02-11T10:59:28.032Z,10.00
2023-02-11T11:01:59.456Z,11.90
2023-02-11T11:04:32.569Z,8.50
2023-02-11T11:07:31.454Z,8.00
2023-02-11T11:10:08.759Z,10.80
2023-02-11T11:12:46.751Z,7.00
2023-02-11T11:15:19.140Z,12.20
2023-02-11T11:17:51.526Z,8.70
2023-02-11T11:20:27.766Z,12.80
2023-02-11T11:23:20.079Z,15.10
2023-02-11T11:26:05.886Z,8.40
2023-02-11T11:28:40.268Z,14.00
2023-02-11T11:34:39.005Z,10.00
2023-02-11T11:37:12.808Z,14.60
2023-02-11T11:39:41.806Z,9.80
2023-02-11T11:42:27.586Z,11.00
2023-02-11T11:45:23.509Z,13.60
2023-02-11T11:48:21.517Z,14.90
2023-02-11T11:50:53.015Z,12.00
2023-02-11T11:53:31.647Z,9.20
2023-02-11T11:56:23.682Z,12.60
2023-02-11T11:58:53.496Z,14.70
2023-02-11T12:01:38.045Z,11.50
2023-02-11T12:04:58.246Z,16.20
2023-02-11T12:07:32.263Z,12.00
2023-02-11T12:10:57.058Z,10.60
2023-02-11T12:13:52.988Z,11.60
2023-02-11T12:16:21.804Z,15.00
2023-02-11T12:18:55.162Z,12.20
2023-02-11T12:21:54.699Z,16.80
2023-02-11T12:24:28.070Z,11.40
2023-02-11T12:27:12.110Z,14.10
2023-02-11T12:30:19.202Z,14.00
2023-02-11T12:33:06.828Z,14.60
2023-02-11T12:35:41.462Z,14.10
2023-02-11T12:38:29.421Z,15.00
2023-02-11T12:41:41.704Z,9.60
2023-02-11T12:44:17.262Z,9.20
2023-02-11T12:47:16.651Z,11.70
2023-02-11T12:57:28.300Z,15.50
2023-02-11T13:00:22.586Z,13.60
2023-02-11T13:03:00.887Z,19.00
2023-02-11T13:05:37.975Z,15.10
2023-02-11T13:08:31.339Z,14.70
2023-02-11T13:11:08.830Z,16.00
2023-02-11T13:13:43.358Z,15.50
2023-02-11T13:16:26.313Z,19.60
2023-02-11T13:19:14.134Z,13.00
2023-02-11T13:21:56.539Z,12.80
2023-02-11T13:24:40.460Z,16.30
2023-02-11T13:27:34.638Z,18.30
2023-02-11T13:30:30.808Z,11.80
2023-02-11T13:33:02.739Z,14.40
2023-02-11T13:35:33.359Z,13.60
2023-02-11T13:38:21.551Z,15.40
2023-02-11T13:41:22.746Z,12.30
2023-02-11T13:44:22.914Z,18.40
2023-02-11T13:47:00.416Z,16.10
2023-02-11T13:49:40.470Z,12.70
2023-02-11T13:52:27.630Z,14.80
2023-02-11T13:54:59.441Z,14.50
2023-02-11T13:57:33.697Z,15.50
2023-02-11T14:00:10.800Z,13.20
2023-02-11T14:02:58.833Z,21.30
2023-02-11T14:05:48.918Z,15.70
2023-02-11T14:08:42.589Z,12.40
2023-02-11T14:11:33.641Z,8.20
2023-02-11T14:14:22.252Z,12.40
2023-02-11T14:17:00.518Z,12.90
2023-02-11T14:19:38.872Z,10.20
2023-02-11T14:22:10.736Z,14.30
2023-02-11T14:24:46.384Z,16.80
2023-02-11T14:27:30.023Z,11.70
2023-02-11T14:30:16.836Z,11.40
2023-02-11T14:33:12.245Z,18.60
2023-02-11T14:35:52.205Z,12.80
2023-02-11T14:38:41.361Z,10.60
2023-02-11T14:41:29.324Z,11.70
2023-02-11T14:44:00.036Z,16.30
2023-02-11T14:46:31.016Z,14.90
2023-02-11T14:49:02.009Z,16.00
2023-02-11T14:51:40.656Z,15.90
2023-02-11T14:54:21.618Z,13.80
2023-02-11T14:57:20.096Z,13.40
2023-02-11T15:00:05.373Z,14.00
2023-02-11T15:02:36.663Z,14.70
2023-02-11T15:05:19.394Z,13.30
2023-02-11T15:07:50.530Z,13.70
2023-02-11T15:10:41.067Z,13.10
2023-02-11T15:13:10.766Z,12.10
2023-02-11T15:15:41.106Z,15.70
2023-02-11T15:18:21.655Z,17.20
2023-02-11T15:20:51.310Z,13.40
2023-02-11T15:23:24.071Z,14.80
2023-02-11T15:25:56.318Z,15.00
2023-02-11T15:28:29.146Z,15.30
2023-02-11T15:31:18.549Z,20.10
2023-02-11T15:33:47.361Z,12.10
2023-02-11T15:36:16.349Z,16.60
2023-02-11T15:38:44.976Z,14.60
2023-02-11T15:41:36.707Z,11.90
2023-02-11T15:44:05.550Z,13.20
2023-02-11T15:46:38.740Z,13.40
2023-02-11T15:49:16.348Z,16.50
2023-02-11T15:51:45.937Z,13.90
2023-02-11T15:54:19.302Z,13.10
2023-02-11T15:56:51.978Z,12.60
2023-02-11T15:59:28.095Z,18.10
2023-02-11T16:01:58.628Z,16.20
2023-02-11T16:04:27.346Z,19.40
2023-02-11T16:06:56.490Z,15.90
2023-02-11T16:09:34.001Z,15.50
2023-02-11T16:12:04.959Z,11.40
2023-02-11T16:14:39.639Z,11.30
2023-02-11T16:17:08.977Z,17.70
2023-02-11T16:19:42.657Z,12.00
2023-02-11T16:22:12.529Z,17.50
2023-02-11T16:24:41.248Z,19.80
2023-02-11T16:27:24.925Z,15.10
2023-02-11T16:29:53.771Z,14.10
2023-02-11T16:32:24.913Z,13.20
2023-02-11T16:34:56.158Z,18.20
2023-02-11T16:37:25.681Z,12.70
2023-02-11T16:39:55.589Z,14.20
2023-02-11T16:42:25.204Z,12.70
2023-02-11T16:44:54.402Z,14.80
2023-02-11T16:47:27.590Z,13.80
2023-02-11T16:49:56.573Z,18.50
2023-02-11T16:52:25.357Z,19.00
2023-02-11T16:54:55.373Z,17.30
2023-02-11T16:57:26.926Z,15.40
2023-02-11T16:59:56.748Z,9.10
2023-02-11T17:02:31.929Z,9.10
2023-02-11T17:05:17.180Z,20.00
2023-02-11T17:07:47.260Z,10.10
2023-02-11T17:10:21.654Z,13.40
2023-02-11T17:12:51.797Z,13.10
2023-02-11T17:15:20.804Z,15.00
2023-02-11T17:17:51.329Z,10.20
2023-02-11T17:20:21.131Z,11.10
2023-02-11T17:22:50.332Z,10.80
2023-02-11T17:25:18.916Z,11.00
2023-02-11T17:27:47.698Z,10.00
2023-02-11T17:30:17.450Z,14.20
2023-02-11T17:32:47.732Z,14.00
2023-02-11T17:35:16.728Z,12.50
2023-02-11T17:37:45.613Z,10.80
2023-02-11T17:40:15.328Z,11.90
2023-02-11T17:42:44.011Z,15.70
2023-02-11T17:45:14.227Z,11.70
2023-02-11T17:47:42.710Z,9.90
2023-02-11T17:50:11.922Z,8.90
2023-02-11T17:52:43.060Z,19.50
2023-02-11T17:55:11.948Z,10.30
2023-02-11T17:57:40.551Z,10.00
2023-02-11T18:00:10.552Z,13.70
2023-02-11T18:02:41.790Z,9.90
2023-02-11T18:05:11.398Z,14.60
2023-02-11T18:07:40.188Z,13.60
2023-02-11T18:10:10.614Z,17.30
2023-02-11T18:12:39.303Z,11.70
2023-02-11T18:15:09.025Z,13.90
2023-02-11T18:17:38.202Z,14.50
2023-02-11T18:20:08.072Z,13.60
2023-02-11T18:22:41.308Z,14.30
2023-02-11T18:25:11.944Z,11.80
2023-02-11T18:27:41.356Z,14.60
2023-02-11T18:30:29.072Z,13.10
2023-02-11T18:32:58.069Z,11.20
2023-02-11T18:35:27.065Z,13.90
2023-02-11T18:37:56.669Z,12.90
2023-02-11T18:40:25.559Z,12.00
2023-02-11T18:42:57.321Z,14.00
2023-02-11T18:45:29.399Z,14.10
2023-02-11T18:48:02.065Z,13.60
2023-02-11T18:50:31.373Z,12.60
2023-02-11T18:53:00.056Z,13.80
2023-02-11T18:55:28.836Z,9.90
2023-02-11T18:57:58.154Z,11.60
2023-02-11T19:00:26.925Z,15.10
2023-02-11T19:02:55.419Z,14.70
2023-02-11T19:05:29.011Z,12.30
2023-02-11T19:07:57.490Z,10.70
2023-02-11T19:10:27.297Z,11.50
2023-02-11T19:12:59.069Z,12.20
2023-02-11T19:15:33.165Z,12.30
2023-02-11T19:18:02.373Z,13.10
2023-02-11T19:20:33.813Z,13.80
2023-02-11T19:23:02.402Z,15.40
2023-02-11T19:25:31.287Z,10.30
2023-02-11T19:28:00.818Z,12.40
2023-02-11T19:30:30.109Z,10.00
2023-02-11T19:32:59.292Z,9.80
2023-02-11T19:35:28.590Z,12.60
2023-02-11T19:37:57.490Z,13.50
2023-02-11T19:40:26.679Z,14.30
2023-02-11T19:42:55.578Z,12.00
2023-02-11T19:45:24.666Z,11.50
2023-02-11T19:47:57.246Z,13.10
2023-02-11T19:50:26.035Z,18.10
2023-02-11T19:52:55.856Z,10.40
2023-02-11T19:55:25.345Z,12.40
2023-02-11T19:57:54.138Z,13.30
2023-02-11T20:00:23.128Z,11.00
2023-02-11T20:02:58.170Z,12.80
2023-02-11T20:05:27.361Z,15.20
2023-02-11T20:07:56.154Z,12.70
2023-02-11T20:10:25.408Z,14.50
2023-02-11T20:12:54.638Z,10.70
2023-02-11T20:15:23.533Z,11.20
2023-02-11T20:17:52.530Z,14.40
2023-02-11T20:20:21.411Z,12.30
2023-02-11T20:22:51.436Z,13.60
2023-02-11T20:25:22.776Z,11.60
2023-02-11T20:27:51.711Z,13.70
2023-02-11T20:30:22.147Z,10.90
2023-02-11T20:32:50.774Z,14.50
2023-02-11T20:35:20.179Z,11.60
2023-02-11T20:37:49.076Z,14.70
2023-02-11T20:40:18.011Z,12.40
2023-02-11T20:42:46.953Z,13.50
2023-02-11T20:45:16.045Z,12.80
2023-02-11T20:47:45.404Z,12.60
2023-02-11T20:50:14.242Z,8.80
2023-02-11T20:52:43.439Z,14.40
2023-02-11T20:55:12.426Z,11.80
2023-02-11T20:57:41.731Z,14.30
2023-02-11T21:00:13.507Z,10.60
2023-02-11T21:02:42.792Z,12.00
2023-02-11T21:05:12.505Z,9.80
2023-02-11T21:07:41.595Z,8.80
2023-02-11T21:10:11.034Z,9.10
2023-02-11T21:12:39.683Z,10.90
2023-02-11T21:15:10.872Z,9.10
2023-02-11T21:17:43.913Z,9.20
2023-02-11T21:20:12.811Z,9.20
2023-02-11T21:22:41.794Z,8.50
2023-02-11T21:25:12.225Z,10.30
2023-02-11T21:27:47.153Z,7.50
2023-02-11T21:30:16.146Z,8.60
2023-02-11T21:32:44.939Z,9.90
2023-02-11T21:35:13.720Z,8.10
2023-02-11T21:37:42.617Z,14.50
2023-02-11T21:40:12.299Z,10.70
2023-02-11T21:42:41.538Z,12.00
2023-02-11T21:45:10.627Z,11.70
2023-02-11T21:47:39.405Z,9.90
2023-02-11T21:50:09.317Z,10.80
2023-02-11T21:52:37.913Z,8.20
2023-02-11T21:55:07.506Z,11.10
2023-02-11T21:57:36.604Z,7.00
2023-02-11T22:00:06.461Z,10.70
2023-02-11T22:02:35.516Z,9.60
2023-02-11T22:05:04.571Z,11.20
2023-02-11T22:07:36.164Z,7.20
2023-02-11T22:10:05.114Z,13.00
2023-02-11T22:12:34.248Z,12.50
2023-02-11T22:15:03.387Z,11.00
2023-02-11T22:17:33.228Z,10.70
2023-02-11T22:20:01.970Z,10.60
2023-02-11T22:22:31.862Z,11.70
2023-02-11T22:25:02.283Z,11.70
2023-02-11T22:27:31.083Z,11.70
2023-02-11T22:29:59.852Z,8.80
2023-02-11T22:32:28.743Z,10.40
2023-02-11T22:34:57.947Z,11.40
2023-02-11T22:37:28.774Z,12.10
2023-02-11T22:39:57.567Z,10.40
2023-02-11T22:42:27.065Z,11.50
2023-02-11T22:44:55.963Z,14.80
2023-02-11T22:47:24.743Z,9.10
2023-02-11T22:49:53.633Z,11.30
2023-02-11T22:52:24.165Z,10.00
2023-02-11T22:54:52.955Z,12.20
2023-02-11T22:57:22.869Z,8.60
2023-02-11T22:59:51.650Z,9.00
2023-02-11T23:02:20.666Z,13.40
2023-02-11T23:04:50.056Z,10.30
2023-02-11T23:07:18.847Z,12.20
2023-02-11T23:09:47.622Z,11.50
2023-02-11T23:12:16.308Z,12.80
2023-02-11T23:14:46.017Z,12.70
2023-02-11T23:17:15.016Z,10.60
2023-02-11T23:19:45.342Z,14.50
2023-02-11T23:22:13.916Z,10.90
2023-02-11T23:24:42.806Z,15.30
2023-02-11T23:27:11.506Z,13.20
2023-02-11T23:29:40.211Z,11.10
2023-02-11T23:32:09.103Z,13.60
2023-02-11T23:34:37.967Z,13.20
2023-02-11T23:37:06.951Z,11.80
2023-02-11T23:39:37.583Z,10.40
2023-02-11T23:42:06.173Z,10.30
2023-02-11T23:44:38.643Z,13.50
2023-02-11T23:47:07.641Z,13.10
2023-02-11T23:49:36.430Z,9.30
2023-02-11T23:52:05.431Z,14.30
2023-02-11T23:54:34.208Z,12.20
2023-02-11T23:57:03.105Z,13.00
2023-02-11T23:59:32.191Z,12.80
